createdAt,value
2022-08-21T00:00:49.006Z,12.18
2022-08-21T00:03:17.913Z,11.97
2022-08-21T00:05:50.840Z,12.40
2022-08-21T00:08:19.764Z,12.77
2022-08-21T00:10:50.440Z,11.88
2022-08-21T00:13:20.747Z,12.43
2022-08-21T00:15:49.979Z,12.50
2022-08-21T00:18:18.975Z,10.98
2022-08-21T00:20:48.627Z,11.07
2022-08-21T00:23:17.480Z,11.03
2022-08-21T00:25:46.928Z,10.60
2022-08-21T00:28:17.541Z,10.60
2022-08-21T00:30:47.295Z,11.73
2022-08-21T00:33:15.951Z,11.13
2022-08-21T00:35:45.863Z,10.47
2022-08-21T00:38:15.509Z,10.80
2022-08-21T00:40:46.901Z,10.97
2022-08-21T00:43:19.299Z,11.23
2022-08-21T00:45:47.899Z,12.00
2022-08-21T00:48:16.539Z,11.25
2022-08-21T00:50:49.121Z,12.02
2022-08-21T00:53:18.577Z,11.27
2022-08-21T00:55:47.861Z,10.53
2022-08-21T00:58:21.954Z,9.70
2022-08-21T01:00:52.319Z,8.93
2022-08-21T01:03:23.978Z,9.30
2022-08-21T01:05:53.678Z,8.70
2022-08-21T01:08:23.181Z,8.20
2022-08-21T01:10:54.651Z,9.30
2022-08-21T01:13:31.652Z,9.40
2022-08-21T01:16:04.891Z,9.80
2022-08-21T01:18:33.432Z,9.40
2022-08-21T01:21:07.966Z,10.20
2022-08-21T01:23:37.522Z,9.50
2022-08-21T01:26:07.189Z,9.70
2022-08-21T01:28:40.560Z,8.73
2022-08-21T01:31:10.725Z,9.27
2022-08-21T01:33:39.457Z,8.80
2022-08-21T01:36:09.819Z,9.70
2022-08-21T01:38:38.457Z,9.20
2022-08-21T01:41:06.914Z,9.65
2022-08-21T01:43:39.684Z,9.10
2022-08-21T01:46:08.684Z,9.17
2022-08-21T01:48:37.987Z,8.65
2022-08-21T01:51:08.565Z,8.85
2022-08-21T01:53:38.344Z,8.70
2022-08-21T01:56:12.661Z,9.50
2022-08-21T01:58:42.503Z,9.50
2022-08-21T02:01:11.599Z,9.40
2022-08-21T02:03:41.819Z,9.03
2022-08-21T02:06:15.946Z,9.03
2022-08-21T02:08:44.440Z,8.73
2022-08-21T02:11:12.978Z,8.60
2022-08-21T02:13:41.661Z,8.60
2022-08-21T02:16:10.677Z,8.48
2022-08-21T02:18:39.406Z,9.23
2022-08-21T02:21:08.381Z,8.88
2022-08-21T02:23:38.543Z,8.87
2022-08-21T02:26:09.801Z,8.48
2022-08-21T02:28:40.957Z,8.68
2022-08-21T02:31:09.643Z,8.50
2022-08-21T02:33:38.203Z,8.17
2022-08-21T02:36:07.566Z,7.70
2022-08-21T02:38:39.947Z,8.20
2022-08-21T02:41:11.258Z,7.93
2022-08-21T02:43:39.673Z,7.88
2022-08-21T02:46:12.956Z,8.13
2022-08-21T02:48:41.806Z,8.10
2022-08-21T02:51:12.594Z,8.97
2022-08-21T02:53:43.495Z,8.63
2022-08-21T02:56:14.772Z,8.37
2022-08-21T02:58:46.860Z,8.20
2022-08-21T03:01:16.663Z,8.95
2022-08-21T03:03:47.350Z,8.13
2022-08-21T03:06:18.153Z,8.23
2022-08-21T03:08:48.298Z,8.53
2022-08-21T03:11:17.602Z,8.77
2022-08-21T03:13:46.218Z,9.30
2022-08-21T03:16:14.670Z,9.77
2022-08-21T03:18:43.249Z,10.20
2022-08-21T03:21:11.779Z,9.37
2022-08-21T03:23:40.847Z,9.17
2022-08-21T03:26:11.890Z,10.70
2022-08-21T03:28:40.497Z,10.27
2022-08-21T03:31:09.734Z,12.03
2022-08-21T03:33:38.267Z,12.43
2022-08-21T03:36:10.131Z,11.57
2022-08-21T03:38:39.606Z,13.40
2022-08-21T03:41:08.586Z,13.00
2022-08-21T03:43:39.631Z,11.40
2022-08-21T03:46:08.697Z,11.27
2022-08-21T03:48:38.647Z,12.60
2022-08-21T03:51:07.881Z,13.53
2022-08-21T03:53:37.064Z,12.73
2022-08-21T03:56:06.406Z,12.57
2022-08-21T03:58:35.430Z,12.20
2022-08-21T04:01:07.368Z,11.90
2022-08-21T04:03:42.214Z,11.17
2022-08-21T04:06:10.863Z,11.07
2022-08-21T04:08:39.369Z,11.57
2022-08-21T04:11:08.462Z,11.10
2022-08-21T04:13:40.267Z,11.27
2022-08-21T04:16:14.906Z,10.38
2022-08-21T04:18:44.074Z,10.13
2022-08-21T04:21:13.890Z,10.38
2022-08-21T04:23:42.574Z,10.90
2022-08-21T04:26:11.126Z,11.03
2022-08-21T04:28:39.547Z,11.02
2022-08-21T04:31:08.063Z,11.10
2022-08-21T04:33:38.053Z,11.10
2022-08-21T04:36:07.866Z,11.77
2022-08-21T04:38:37.705Z,10.70
2022-08-21T04:41:07.514Z,12.43
2022-08-21T04:43:36.774Z,11.90
2022-08-21T04:46:05.464Z,10.98
2022-08-21T04:48:34.929Z,9.53
2022-08-21T04:51:09.710Z,9.93
2022-08-21T04:53:41.689Z,8.47
2022-08-21T04:56:13.975Z,8.07
2022-08-21T04:58:43.373Z,8.40
2022-08-21T05:01:17.681Z,7.63
2022-08-21T05:03:47.575Z,8.20
2022-08-21T05:06:18.416Z,7.67
2022-08-21T05:08:49.645Z,8.17
2022-08-21T05:11:18.264Z,8.23
2022-08-21T05:13:46.721Z,8.53
2022-08-21T05:16:15.291Z,8.97
2022-08-21T05:19:03.737Z,8.70
2022-08-21T05:21:33.840Z,9.20
2022-08-21T05:24:02.856Z,9.43
2022-08-21T05:26:31.968Z,10.10
2022-08-21T05:29:01.107Z,8.65
2022-08-21T05:31:30.752Z,8.82
2022-08-21T05:33:59.304Z,8.77
2022-08-21T05:36:28.047Z,8.32
2022-08-21T05:38:58.153Z,8.05
2022-08-21T05:41:26.752Z,7.63
2022-08-21T05:43:55.378Z,8.98
2022-08-21T05:46:23.794Z,8.25
2022-08-21T05:48:52.292Z,7.80
2022-08-21T05:51:20.707Z,7.85
2022-08-21T05:53:49.516Z,8.27
2022-08-21T05:56:19.687Z,7.97
2022-08-21T05:58:48.241Z,9.00
2022-08-21T06:01:17.148Z,7.95
2022-08-21T06:03:45.647Z,9.27
2022-08-21T06:06:14.211Z,8.75
2022-08-21T06:08:42.860Z,8.82
2022-08-21T06:11:12.012Z,7.97
2022-08-21T06:13:42.754Z,7.57
2022-08-21T06:16:15.826Z,8.07
2022-08-21T06:18:45.566Z,6.47
2022-08-21T06:21:14.681Z,6.22
2022-08-21T06:23:43.744Z,6.18
2022-08-21T06:26:13.664Z,7.30
2022-08-21T06:28:44.355Z,8.15
2022-08-21T06:31:15.604Z,8.80
2022-08-21T06:33:44.323Z,9.15
2022-08-21T06:36:12.835Z,9.40
2022-08-21T06:38:41.891Z,8.25
2022-08-21T06:41:24.161Z,9.00
2022-08-21T06:43:58.183Z,8.57
2022-08-21T06:46:29.568Z,8.48
2022-08-21T06:48:59.200Z,8.18
2022-08-21T06:51:28.136Z,8.07
2022-08-21T06:53:57.156Z,9.48
2022-08-21T06:56:28.004Z,8.88
2022-08-21T06:58:58.270Z,8.38
2022-08-21T07:01:28.633Z,8.85
2022-08-21T07:03:57.372Z,9.68
2022-08-21T07:06:26.071Z,9.13
2022-08-21T07:08:54.587Z,9.55
2022-08-21T07:11:27.986Z,9.40
2022-08-21T07:13:59.481Z,9.60
2022-08-21T07:16:28.009Z,8.77
2022-08-21T07:18:56.584Z,9.80
2022-08-21T07:21:26.316Z,9.20
2022-08-21T07:23:55.282Z,9.95
2022-08-21T07:26:25.378Z,9.90
2022-08-21T07:28:54.332Z,9.90
2022-08-21T07:31:26.061Z,9.35
2022-08-21T07:33:55.192Z,9.27
2022-08-21T07:36:23.704Z,8.85
2022-08-21T07:38:52.922Z,9.70
2022-08-21T07:41:23.345Z,10.13
2022-08-21T07:43:52.860Z,9.27
2022-08-21T07:46:23.294Z,9.25
2022-08-21T07:48:53.769Z,10.02
2022-08-21T07:51:26.568Z,8.70
2022-08-21T07:53:57.015Z,8.30
2022-08-21T07:56:25.470Z,9.63
2022-08-21T07:58:54.181Z,11.63
2022-08-21T08:01:24.204Z,10.95
2022-08-21T08:03:53.225Z,9.63
2022-08-21T08:06:21.705Z,9.55
2022-08-21T08:08:50.235Z,9.02
2022-08-21T08:11:18.933Z,9.57
2022-08-21T08:13:51.139Z,9.18
2022-08-21T08:16:20.009Z,9.75
2022-08-21T08:18:49.894Z,8.85
2022-08-21T08:21:19.866Z,9.35
2022-08-21T08:23:48.350Z,9.13
2022-08-21T08:26:17.708Z,9.07
2022-08-21T08:28:47.731Z,8.40
2022-08-21T08:31:16.343Z,9.40
2022-08-21T08:33:45.076Z,9.25
2022-08-21T08:36:20.017Z,10.15
2022-08-21T08:38:50.065Z,10.50
2022-08-21T08:41:23.047Z,9.63
2022-08-21T08:43:54.855Z,10.35
2022-08-21T08:46:34.575Z,10.10
2022-08-21T08:49:08.556Z,11.60
2022-08-21T08:51:44.598Z,10.85
2022-08-21T08:54:17.801Z,11.10
2022-08-21T08:56:47.666Z,11.73
2022-08-21T08:59:20.279Z,10.80
2022-08-21T09:01:49.315Z,10.98
2022-08-21T09:04:23.350Z,10.90
2022-08-21T09:07:14.974Z,11.00
2022-08-21T09:09:57.898Z,11.50
2022-08-21T09:12:35.791Z,11.40
2022-08-21T09:15:13.746Z,12.15
2022-08-21T09:18:00.664Z,11.40
2022-08-21T09:20:41.311Z,11.10
2022-08-21T09:23:24.919Z,10.75
2022-08-21T09:26:00.329Z,10.20
2022-08-21T09:28:28.834Z,9.93
2022-08-21T09:31:03.590Z,9.77
2022-08-21T09:33:32.419Z,10.55
2022-08-21T09:36:00.795Z,10.65
2022-08-21T09:38:34.191Z,9.18
2022-08-21T09:41:06.748Z,10.35
2022-08-21T09:43:35.994Z,9.50
2022-08-21T09:46:08.784Z,9.95
2022-08-21T09:48:46.989Z,10.05
2022-08-21T09:51:18.488Z,10.63
2022-08-21T09:53:51.892Z,9.82
2022-08-21T09:56:46.682Z,9.50
2022-08-21T09:59:36.050Z,9.73
2022-08-21T10:02:29.240Z,9.85
2022-08-21T10:05:01.179Z,9.35
2022-08-21T10:07:31.749Z,9.52
2022-08-21T10:10:08.636Z,10.02
2022-08-21T10:12:47.695Z,9.27
2022-08-21T10:15:22.518Z,9.20
2022-08-21T10:18:00.148Z,8.80
2022-08-21T10:20:37.728Z,9.60
2022-08-21T10:23:19.468Z,9.80
2022-08-21T10:26:13.935Z,9.10
2022-08-21T10:28:53.418Z,9.52
2022-08-21T10:31:34.801Z,9.23
2022-08-21T10:34:15.958Z,10.82
2022-08-21T10:37:10.006Z,11.00
2022-08-21T10:39:47.306Z,9.88
2022-08-21T10:42:33.988Z,10.27
2022-08-21T10:45:16.142Z,9.73
2022-08-21T10:47:52.895Z,10.02
2022-08-21T10:50:32.967Z,9.55
2022-08-21T10:53:38.412Z,9.00
2022-08-21T10:56:16.791Z,9.13
2022-08-21T10:58:59.370Z,8.73
2022-08-21T11:01:32.251Z,9.07
2022-08-21T11:04:12.940Z,8.55
2022-08-21T11:06:47.746Z,8.75
2022-08-21T11:09:19.884Z,8.00
2022-08-21T11:11:59.558Z,7.68
2022-08-21T11:14:52.085Z,6.80
2022-08-21T11:17:26.716Z,6.35
2022-08-21T11:20:01.584Z,6.38
2022-08-21T11:22:37.752Z,6.72
2022-08-21T11:25:11.771Z,6.70
2022-08-21T11:27:45.232Z,6.40
2022-08-21T11:30:15.417Z,6.90
2022-08-21T11:33:14.594Z,5.80
2022-08-21T11:35:50.128Z,6.70
2022-08-21T11:38:29.150Z,6.40
2022-08-21T11:41:19.557Z,5.50
2022-08-21T11:43:51.805Z,5.78
2022-08-21T11:46:33.268Z,5.75
2022-08-21T11:49:25.664Z,6.35
2022-08-21T11:52:01.313Z,4.85
2022-08-21T11:54:36.172Z,4.65
2022-08-21T11:57:09.018Z,5.13
2022-08-21T11:59:42.862Z,5.00
2022-08-21T12:02:17.853Z,4.90
2022-08-21T12:04:49.597Z,5.00
2022-08-21T12:07:30.920Z,5.30
2022-08-21T12:10:00.977Z,5.22
2022-08-21T12:12:31.433Z,4.55
2022-08-21T12:15:25.477Z,4.80
2022-08-21T12:17:58.516Z,4.60
2022-08-21T12:20:50.533Z,4.35
2022-08-21T12:23:27.769Z,4.32
2022-08-21T12:26:12.667Z,4.10
2022-08-21T12:28:42.215Z,4.30
2022-08-21T12:31:26.694Z,4.25
2022-08-21T12:34:01.307Z,4.07
2022-08-21T12:36:42.404Z,3.50
2022-08-21T12:39:18.855Z,4.05
2022-08-21T12:41:52.356Z,3.90
2022-08-21T12:44:30.479Z,3.80
2022-08-21T12:47:04.435Z,3.83
2022-08-21T12:49:37.206Z,4.22
2022-08-21T12:52:13.390Z,3.97
2022-08-21T12:54:44.635Z,4.10
2022-08-21T12:57:22.168Z,3.70
2022-08-21T12:59:55.595Z,3.75
2022-08-21T13:02:29.092Z,3.80
2022-08-21T13:05:00.060Z,4.20
2022-08-21T13:07:31.969Z,3.50
2022-08-21T13:10:05.307Z,3.78
2022-08-21T13:12:34.946Z,4.07
2022-08-21T13:15:09.150Z,4.00
2022-08-21T13:17:42.015Z,4.28
2022-08-21T13:20:21.746Z,4.20
2022-08-21T13:22:50.179Z,4.40
2022-08-21T13:25:21.083Z,4.00
2022-08-21T13:28:02.297Z,4.05
2022-08-21T13:30:31.578Z,3.97
2022-08-21T13:33:12.828Z,4.00
2022-08-21T13:36:06.711Z,3.92
2022-08-21T13:38:37.730Z,4.00
2022-08-21T13:41:10.770Z,4.30
2022-08-21T13:43:39.708Z,4.10
2022-08-21T13:46:12.693Z,3.47
2022-08-21T13:48:41.540Z,3.13
2022-08-21T13:51:12.637Z,3.30
2022-08-21T13:53:52.313Z,3.30
2022-08-21T13:56:26.683Z,3.53
2022-08-21T13:58:56.691Z,3.00
2022-08-21T14:01:29.497Z,3.35
2022-08-21T14:04:03.418Z,3.35
2022-08-21T14:06:37.220Z,3.70
2022-08-21T14:09:14.569Z,3.80
2022-08-21T14:11:43.207Z,3.55
2022-08-21T14:14:22.496Z,3.40
2022-08-21T14:16:57.563Z,3.65
2022-08-21T14:19:29.613Z,3.10
2022-08-21T14:21:59.650Z,2.95
2022-08-21T14:24:30.512Z,2.78
2022-08-21T14:27:04.299Z,2.83
2022-08-21T14:29:37.677Z,3.17
2022-08-21T14:32:25.184Z,2.80
2022-08-21T14:34:54.953Z,3.28
2022-08-21T14:37:26.644Z,3.05
2022-08-21T14:39:55.241Z,2.88
2022-08-21T14:42:23.905Z,2.95
2022-08-21T14:44:53.015Z,2.80
2022-08-21T14:47:21.534Z,2.90
2022-08-21T14:49:50.058Z,2.97
2022-08-21T14:52:18.888Z,2.90
2022-08-21T14:54:48.813Z,3.03
2022-08-21T14:57:17.352Z,3.90
2022-08-21T14:59:45.865Z,3.00
2022-08-21T15:02:14.390Z,3.13
2022-08-21T15:04:43.644Z,2.83
2022-08-21T15:07:12.095Z,2.92
2022-08-21T15:09:40.654Z,2.95
2022-08-21T15:12:11.875Z,3.28
2022-08-21T15:14:42.321Z,2.92
2022-08-21T15:17:13.160Z,2.70
2022-08-21T15:19:42.199Z,2.72
2022-08-21T15:22:18.890Z,2.53
2022-08-21T15:24:47.633Z,2.70
2022-08-21T15:27:20.076Z,4.03
2022-08-21T15:29:48.691Z,2.80
2022-08-21T15:32:20.838Z,2.60
2022-08-21T15:34:49.318Z,2.80
2022-08-21T15:37:18.003Z,2.80
2022-08-21T15:39:52.285Z,2.70
2022-08-21T15:42:27.766Z,2.90
2022-08-21T15:44:57.752Z,3.10
2022-08-21T15:47:31.355Z,2.70
2022-08-21T15:49:59.931Z,2.80
2022-08-21T15:52:28.526Z,2.80
2022-08-21T15:54:56.890Z,2.85
2022-08-21T15:57:27.715Z,2.85
2022-08-21T15:59:59.586Z,2.63
2022-08-21T16:02:29.927Z,4.68
2022-08-21T16:04:59.310Z,2.70
2022-08-21T16:07:27.911Z,3.08
2022-08-21T16:09:56.426Z,3.17
2022-08-21T16:12:29.376Z,2.85
2022-08-21T16:14:57.809Z,2.90
2022-08-21T16:17:30.259Z,2.60
2022-08-21T16:19:59.827Z,2.88
2022-08-21T16:22:31.771Z,2.38
2022-08-21T16:25:12.857Z,2.90
2022-08-21T16:27:45.483Z,2.70
2022-08-21T16:30:15.498Z,3.28
2022-08-21T16:32:44.732Z,3.10
2022-08-21T16:35:16.053Z,3.17
2022-08-21T16:37:44.776Z,2.70
2022-08-21T16:40:14.253Z,2.78
2022-08-21T16:42:45.221Z,2.95
2022-08-21T16:45:15.513Z,3.00
2022-08-21T16:47:44.810Z,2.75
2022-08-21T16:50:23.275Z,2.70
2022-08-21T16:52:52.132Z,3.00
2022-08-21T16:55:20.823Z,2.80
2022-08-21T16:57:50.948Z,2.78
2022-08-21T17:00:19.485Z,2.60
2022-08-21T17:02:50.659Z,3.00
2022-08-21T17:05:19.256Z,2.80
2022-08-21T17:07:47.983Z,2.90
2022-08-21T17:10:17.455Z,2.45
2022-08-21T17:12:51.519Z,2.55
2022-08-21T17:15:25.085Z,3.10
2022-08-21T17:17:54.060Z,2.80
2022-08-21T17:20:22.768Z,2.75
2022-08-21T17:22:51.588Z,2.80
2022-08-21T17:25:20.896Z,2.67
2022-08-21T17:27:50.789Z,2.75
2022-08-21T17:30:22.528Z,2.63
2022-08-21T17:32:53.990Z,2.60
2022-08-21T17:35:23.172Z,2.70
2022-08-21T17:37:53.489Z,2.58
2022-08-21T17:40:22.359Z,4.57
2022-08-21T17:42:50.951Z,2.63
2022-08-21T17:45:22.211Z,2.72
2022-08-21T17:47:50.679Z,2.72
2022-08-21T17:50:22.688Z,2.55
2022-08-21T17:52:52.382Z,2.72
2022-08-21T17:55:21.753Z,2.65
2022-08-21T17:57:53.279Z,2.58
2022-08-21T18:00:26.291Z,2.65
2022-08-21T18:03:01.308Z,2.72
2022-08-21T18:05:30.201Z,2.60
2022-08-21T18:07:59.058Z,2.90
2022-08-21T18:10:27.689Z,2.70
2022-08-21T18:12:56.825Z,2.78
2022-08-21T18:15:26.816Z,2.83
2022-08-21T18:17:55.328Z,2.92
2022-08-21T18:20:25.211Z,3.25
2022-08-21T18:22:53.739Z,3.33
2022-08-21T18:25:22.600Z,3.53
2022-08-21T18:27:52.698Z,3.70
2022-08-21T18:30:24.444Z,3.78
2022-08-21T18:32:56.200Z,3.55
2022-08-21T18:35:25.165Z,3.45
2022-08-21T18:37:53.701Z,3.75
2022-08-21T18:40:22.645Z,4.00
2022-08-21T18:42:55.486Z,4.05
2022-08-21T18:45:27.388Z,3.90
2022-08-21T18:47:59.738Z,4.13
2022-08-21T18:50:30.565Z,4.25
2022-08-21T18:52:58.994Z,3.72
2022-08-21T18:55:28.240Z,4.30
2022-08-21T18:57:58.089Z,4.72
2022-08-21T19:00:30.423Z,4.53
2022-08-21T19:03:01.018Z,4.60
2022-08-21T19:05:29.760Z,4.75
2022-08-21T19:07:58.827Z,4.72
2022-08-21T19:10:29.524Z,4.45
2022-08-21T19:13:01.214Z,4.25
2022-08-21T19:15:30.074Z,4.70
2022-08-21T19:18:00.442Z,4.82
2022-08-21T19:20:34.457Z,4.72
2022-08-21T19:23:06.461Z,4.45
2022-08-21T19:25:37.342Z,4.95
2022-08-21T19:28:14.265Z,4.57
2022-08-21T19:30:48.002Z,4.50
2022-08-21T19:33:23.705Z,5.03
2022-08-21T19:35:53.636Z,5.00
2022-08-21T19:38:22.771Z,4.90
2022-08-21T19:40:51.902Z,4.75
2022-08-21T19:43:22.419Z,4.80
2022-08-21T19:45:54.539Z,5.80
2022-08-21T19:48:24.958Z,6.10
2022-08-21T19:50:55.295Z,5.35
2022-08-21T19:53:23.890Z,5.22
2022-08-21T19:55:52.452Z,5.32
2022-08-21T19:58:33.378Z,5.88
2022-08-21T20:01:02.077Z,6.05
2022-08-21T20:03:32.014Z,5.97
2022-08-21T20:06:00.521Z,5.70
2022-08-21T20:08:29.050Z,5.13
2022-08-21T20:11:02.541Z,5.38
2022-08-21T20:13:34.216Z,5.15
2022-08-21T20:16:06.011Z,5.05
2022-08-21T20:18:38.569Z,5.30
2022-08-21T20:21:11.020Z,5.72
2022-08-21T20:26:27.954Z,5.70
2022-08-21T20:28:57.927Z,6.00
2022-08-21T20:31:27.963Z,5.57
2022-08-21T20:33:58.073Z,5.60
2022-08-21T20:36:26.949Z,5.38
2022-08-21T20:38:55.440Z,4.95
2022-08-21T20:41:30.450Z,4.50
2022-08-21T20:44:01.046Z,4.47
2022-08-21T20:46:33.216Z,4.53
2022-08-21T20:49:03.337Z,4.25
2022-08-21T20:51:37.331Z,4.45
2022-08-21T20:54:14.293Z,4.47
2022-08-21T20:56:50.890Z,4.25
2022-08-21T20:59:32.278Z,4.22
2022-08-21T21:02:11.934Z,4.70
2022-08-21T21:04:49.467Z,5.60
2022-08-21T21:07:27.504Z,5.30
2022-08-21T21:09:58.685Z,5.70
2022-08-21T21:12:32.529Z,5.80
2022-08-21T21:15:07.202Z,5.93
2022-08-21T21:17:41.369Z,5.57
2022-08-21T21:20:17.141Z,5.80
2022-08-21T21:22:52.200Z,6.00
2022-08-21T21:25:39.937Z,5.78
2022-08-21T21:31:00.676Z,5.90
2022-08-21T21:33:32.512Z,5.95
2022-08-21T21:36:13.680Z,6.00
2022-08-21T21:38:51.580Z,5.63
2022-08-21T21:41:28.913Z,5.93
2022-08-21T21:44:10.487Z,6.00
2022-08-21T21:46:48.668Z,6.43
2022-08-21T21:49:49.647Z,5.85
2022-08-21T21:52:36.456Z,5.85
2022-08-21T21:55:23.744Z,6.28
2022-08-21T21:58:18.002Z,6.07
2022-08-21T22:00:53.600Z,5.95
2022-08-21T22:03:27.301Z,6.10
2022-08-21T22:06:01.605Z,6.10
2022-08-21T22:08:48.738Z,6.00
2022-08-21T22:11:29.313Z,6.00
2022-08-21T22:14:08.592Z,5.88
2022-08-21T22:16:37.988Z,5.95
2022-08-21T22:19:14.928Z,6.10
2022-08-21T22:21:50.682Z,6.22
2022-08-21T22:24:27.709Z,5.70
2022-08-21T22:27:01.738Z,5.57
2022-08-21T22:29:48.475Z,5.78
2022-08-21T22:32:25.781Z,6.13
2022-08-21T22:35:15.515Z,6.22
2022-08-21T22:37:47.719Z,6.10
2022-08-21T22:40:28.056Z,6.32
2022-08-21T22:43:00.581Z,5.90
2022-08-21T22:45:32.622Z,5.88
2022-08-21T22:48:11.076Z,5.95
2022-08-21T22:50:43.221Z,6.32
2022-08-21T22:53:12.557Z,6.13
2022-08-21T22:55:53.696Z,6.13
2022-08-21T22:58:26.299Z,6.85
2022-08-21T23:00:58.465Z,6.57
2022-08-21T23:06:27.295Z,6.60
2022-08-21T23:08:56.122Z,7.10
2022-08-21T23:11:30.439Z,7.03
2022-08-21T23:14:00.494Z,6.85
2022-08-21T23:16:47.223Z,7.13
2022-08-21T23:19:27.499Z,7.13
2022-08-21T23:25:04.430Z,7.57
2022-08-21T23:27:45.334Z,7.13
2022-08-21T23:30:19.271Z,7.35
2022-08-21T23:33:21.513Z,6.80
2022-08-21T23:36:12.542Z,7.27
2022-08-21T23:38:54.168Z,7.37
2022-08-21T23:41:34.699Z,7.60
2022-08-21T23:44:16.082Z,7.27
2022-08-21T23:46:56.923Z,7.53
2022-08-21T23:52:45.137Z,6.60
2022-08-21T23:55:28.323Z,7.33
2022-08-21T23:58:14.323Z,7.73
